This demonstration page uses our WeatherBlox Daily Observations layout. Learn more.

38.89511, -77.03637

Hourly Observations for September 23, 2019

Temp ( °F °C ) Dew Point ( °F °C ) Humidity (%) Winds ( mph kmh ) Pressure ( in mb ) Visibility ( mi km ) Precip ( " mm )
12:52 am 00:52 Mostly Cloudy 77 25 66 18.9 69 69 S 13 20 30 1016 10 16.09344 0 0
1:52 am 01:52 Mostly Cloudy 76 24.4 66 18.9 72 72 S 13 20 29.97 1015 10 16.09344 0 0
2:52 am 02:52 Partly Cloudy 75 23.9 66 18.9 74 74 S 9 15 29.97 1015 10 16.09344 0 0
3:52 am 03:52 Partly Cloudy 74 23.3 66 18.9 76 76 S 6 9 29.94 1014 10 16.09344 0 0
4:52 am 04:52 Mostly Clear 73 22.8 67 19.4 81 81 S 9 15 29.94 1014 10 16.09344 0 0
5:52 am 05:52 Mostly Clear 73 22.8 67 19.4 81 81 S 9 15 29.94 1014 10 16.09344 0 0
6:52 am 06:52 Mostly Cloudy 73 22.8 66 18.9 79 79 S 9 15 29.94 1014 10 16.09344 0 0
7:52 am 07:52 Mostly Cloudy 73 22.8 66 18.9 79 79 S 7 11 29.97 1015 10 16.09344 0 0
8:52 am 08:52 Mostly Cloudy 76 24.4 65 18.3 69 69 SW 9 15 29.97 1015 10 16.09344 0 0
9:52 am 09:52 Mostly Cloudy 77 25 67 19.4 71 71 S 10 17 29.97 1015 10 16.09344 0 0
10:52 am 10:52 Mostly Cloudy 80 26.7 68 20 67 67 S 12 19 29.94 1014 10 16.09344 0 0
11:52 am 11:52 Mostly Cloudy 83 28.3 67 19.4 59 59 S 13 20 29.91 1013 10 16.09344 0 0
12:52 pm 12:52 Mostly Cloudy 87 30.6 66 18.9 50 50 S 14 22 29.88 1012 10 16.09344 0 0
1:52 pm 13:52 Mostly Cloudy 91 32.8 60 15.6 35 35 S 10 17 29.88 1012 10 16.09344 0 0
2:52 pm 14:52 Mostly Cloudy 93 33.9 57 13.9 30 30 SW 13 20 29.85 1011 10 16.09344 0 0
3:52 pm 15:52 Mostly Cloudy 93 33.9 59 15 32 32 SSW 14 22 29.83 1010 10 16.09344 0 0
4:52 pm 16:52 Mostly Cloudy 94 34.4 55 12.8 27 27 SSW 15 24 29.8 1009 10 16.09344 0 0
5:52 pm 17:52 Mostly Cloudy 91 32.8 56 13.3 31 31 SSW 12 19 29.8 1009 10 16.09344 0 0
6:52 pm 18:52 Mostly Cloudy 89 31.7 58 14.4 35 35 SSW 9 15 29.8 1009 10 16.09344 0 0
7:52 pm 19:52 Cloudy 86 30 61 16.1 43 43 SW 10 17 29.8 1009 10 16.09344 0 0
8:52 pm 20:52 Cloudy 83 28.3 63 17.2 51 51 NNW 16 26 29.8 1009 10 16.09344 0 0
8:58 pm 20:58 Cloudy 83 28.3 64 17.8 53 53 NW 14 22 29.83 1010 10 16.09344 0 0
9:52 pm 21:52 Cloudy 80 26.7 66 18.9 62 62 NNW 9 15 29.83 1010 10 16.09344 0 0
10:52 pm 22:52 Mostly Cloudy 79 26.1 66 18.9 65 65 NW 13 20 29.83 1010 10 16.09344 0 0
11:52 pm 23:52 Partly Cloudy 79 26.1 65 18.3 62 62 WNW 10 17 29.83 1010 10 16.09344 0 0

Powered by AerisWeather